Time;durP1;ratioP1;P1;durP2;ratioP2;P2;SDS_P1;SDS_P2;PMS_P1;PMS_P2;Temp;Humidity;BMP_temperature;BMP_pressure;BME280_temperature;BME280_humidity;BME280_pressure;Samples;Min_cycle;Max_cycle;Signal;HPM_P1;HPM_P2
2022/01/26 00:06:43;;;;;;;87.53;46.40;;;4.20;99.90;;;;;;4995592;28;20190;-61
2022/01/26 00:09:10;;;;;;;90.93;48.22;;;4.30;99.90;;;;;;4995294;28;20199;-61
2022/01/26 00:11:36;;;;;;;88.50;47.67;;;4.30;99.90;;;;;;4995263;28;20184;-62
2022/01/26 00:14:08;;;;;;;85.85;48.50;;;4.10;99.90;;;;;;4995163;28;20180;-61
2022/01/26 00:16:38;;;;;;;85.78;45.55;;;4.20;99.90;;;;;;4994790;28;20241;-61
2022/01/26 00:19:06;;;;;;;87.30;46.93;;;4.20;99.90;;;;;;4993871;28;20264;-61
2022/01/26 00:21:39;;;;;;;83.20;45.17;;;4.00;99.90;;;;;;4994918;28;20200;-61
2022/01/26 00:24:27;;;;;;;87.25;47.50;;;3.90;99.90;;;;;;4995055;28;20184;-61
2022/01/26 00:29:40;;;;;;;84.13;45.65;;;4.00;99.90;;;;;;4995074;28;20667;-61
2022/01/26 00:40:29;;;;;;;81.73;43.97;;;4.10;99.90;;;;;;4994755;28;20222;-61
2022/01/26 00:42:58;;;;;;;83.27;45.57;;;4.10;99.90;;;;;;4994829;28;20183;-61
2022/01/26 00:45:32;;;;;;;83.47;44.87;;;4.10;99.90;;;;;;4994587;28;20184;-61
2022/01/26 00:48:00;;;;;;;85.00;45.90;;;4.10;99.90;;;;;;4994820;28;20184;-61
2022/01/26 00:50:26;;;;;;;88.13;48.00;;;4.10;99.90;;;;;;4994675;28;20231;-61
2022/01/26 00:52:54;;;;;;;88.07;45.35;;;4.10;99.90;;;;;;4994266;28;20608;-61
2022/01/26 00:55:20;;;;;;;87.18;47.05;;;4.10;99.90;;;;;;4994377;28;20195;-61
2022/01/26 00:57:46;;;;;;;86.15;46.92;;;4.10;99.90;;;;;;4994390;28;20208;-61
2022/01/26 01:00:24;;;;;;;83.63;45.85;;;4.10;99.90;;;;;;4994170;28;20212;-61
2022/01/26 01:02:51;;;;;;;83.03;45.17;;;4.10;99.90;;;;;;4994453;28;20537;-61
2022/01/26 01:05:24;;;;;;;84.25;45.90;;;4.10;99.90;;;;;;4994183;28;20177;-61
2022/01/26 01:07:55;;;;;;;81.97;46.90;;;4.20;99.90;;;;;;4994248;28;20181;-61
2022/01/26 01:10:23;;;;;;;83.50;46.15;;;4.00;99.90;;;;;;4994124;28;20191;-61
2022/01/26 01:12:52;;;;;;;83.82;45.25;;;4.00;99.90;;;;;;4994029;28;20185;-61
2022/01/26 01:15:19;;;;;;;86.87;46.73;;;4.10;99.90;;;;;;4994197;28;20184;-61
2022/01/26 01:17:50;;;;;;;80.93;46.97;;;4.10;99.90;;;;;;4994157;28;20176;-60
2022/01/26 01:27:50;;;;;;;90.60;49.78;;;4.20;99.90;;;;;;4993433;28;20181;-61
2022/01/26 01:32:52;;;;;;;86.72;48.03;;;4.20;99.90;;;;;;4993963;28;20180;-61
2022/01/26 01:35:19;;;;;;;90.05;49.65;;;4.30;99.90;;;;;;4993910;28;20189;-61
2022/01/26 01:37:44;;;;;;;85.80;48.28;;;4.20;99.90;;;;;;4993677;28;20192;-60
2022/01/26 01:40:11;;;;;;;92.85;49.72;;;4.20;99.90;;;;;;4993833;28;20213;-60
2022/01/26 01:42:36;;;;;;;89.93;49.00;;;4.30;99.90;;;;;;4993851;28;20590;-60
2022/01/26 01:45:03;;;;;;;91.13;47.55;;;4.20;99.90;;;;;;4993870;28;20231;-62
2022/01/26 01:47:29;;;;;;;88.90;48.63;;;4.20;99.90;;;;;;4993766;28;20184;-61
2022/01/26 01:49:54;;;;;;;91.97;49.92;;;4.10;99.90;;;;;;4993711;28;20203;-61
2022/01/26 01:52:20;;;;;;;82.63;47.47;;;4.10;99.90;;;;;;4993716;28;20207;-60
2022/01/26 01:54:53;;;;;;;89.18;49.25;;;4.20;99.90;;;;;;4993867;28;20176;-61
2022/01/26 01:57:24;;;;;;;98.80;50.43;;;4.20;99.90;;;;;;4993786;28;20276;-61
2022/01/26 01:59:50;;;;;;;93.85;50.63;;;4.20;99.90;;;;;;4993627;28;20299;-61
2022/01/26 02:02:16;;;;;;;90.00;48.17;;;4.10;99.90;;;;;;4993740;28;20192;-61
2022/01/26 02:04:43;;;;;;;92.25;50.80;;;4.10;99.90;;;;;;4993478;28;20180;-61
2022/01/26 02:07:10;;;;;;;93.88;49.05;;;4.10;99.90;;;;;;4993590;28;20197;-60
2022/01/26 02:09:39;;;;;;;88.07;48.50;;;4.20;99.90;;;;;;4994001;28;20188;-61
2022/01/26 02:12:18;;;;;;;98.28;51.88;;;4.20;99.90;;;;;;4993833;28;20173;-61
2022/01/26 02:14:50;;;;;;;95.05;50.13;;;4.20;99.90;;;;;;4993545;28;20185;-61
2022/01/26 02:20:33;;;;;;;89.40;49.42;;;4.10;99.90;;;;;;4993586;28;20219;-61
2022/01/26 02:51:00;;;;;;;87.90;46.63;;;4.10;99.90;;;;;;4997051;28;20188;-61
2022/01/26 02:56:06;;;;;;;87.97;47.27;;;4.00;99.90;;;;;;4996693;28;20191;-61
2022/01/26 03:03:36;;;;;;;97.63;48.30;;;4.00;99.90;;;;;;4996728;28;20195;-63
2022/01/26 03:06:10;;;;;;;83.22;44.88;;;3.90;99.90;;;;;;4996455;28;20533;-61
2022/01/26 03:08:43;;;;;;;91.68;47.25;;;3.80;99.90;;;;;;4996388;28;20185;-61
2022/01/26 03:11:11;;;;;;;89.83;45.73;;;4.00;99.90;;;;;;4996469;28;20177;-61
2022/01/26 03:13:44;;;;;;;92.77;45.80;;;4.00;99.90;;;;;;4996257;28;20177;-61
2022/01/26 03:16:29;;;;;;;96.18;47.85;;;4.00;99.90;;;;;;4996321;28;20180;-61
2022/01/26 03:21:42;;;;;;;95.00;47.70;;;3.90;99.90;;;;;;5010294;28;20715;-61
2022/01/26 03:34:38;;;;;;;97.10;47.67;;;3.70;99.90;;;;;;4996299;28;20188;-61
2022/01/26 03:37:07;;;;;;;96.67;46.90;;;3.70;99.90;;;;;;4995978;28;20176;-61
2022/01/26 03:39:41;;;;;;;93.07;46.57;;;3.70;99.90;;;;;;4996022;28;20212;-61
2022/01/26 03:42:09;;;;;;;98.93;47.83;;;3.80;99.90;;;;;;4995769;28;20197;-61
2022/01/26 03:44:35;;;;;;;91.13;46.97;;;3.80;99.90;;;;;;4995682;28;20195;-61
2022/01/26 03:47:04;;;;;;;100.38;48.65;;;3.70;99.90;;;;;;4995961;28;20177;-63
2022/01/26 03:49:30;;;;;;;101.57;49.10;;;3.90;99.90;;;;;;4995198;28;20239;-62
2022/01/26 03:51:56;;;;;;;98.30;48.80;;;3.90;99.90;;;;;;4995555;28;20192;-61
2022/01/26 03:54:22;;;;;;;98.47;49.25;;;3.80;99.90;;;;;;4995601;28;20184;-60
2022/01/26 03:56:48;;;;;;;98.30;49.60;;;3.80;99.90;;;;;;4995576;28;20180;-61
2022/01/26 03:59:13;;;;;;;108.30;48.17;;;3.90;99.90;;;;;;4995383;28;20208;-61
2022/01/26 04:01:40;;;;;;;94.93;47.90;;;3.90;99.90;;;;;;4995360;28;20227;-61
2022/01/26 04:04:12;;;;;;;105.60;50.13;;;3.90;99.90;;;;;;4995586;28;20236;-61
2022/01/26 04:06:38;;;;;;;100.72;48.72;;;3.90;99.90;;;;;;4995266;28;20271;-61
2022/01/26 04:09:08;;;;;;;103.72;48.17;;;4.00;99.90;;;;;;4994529;28;20710;-61
2022/01/26 04:11:37;;;;;;;101.20;46.90;;;4.00;99.90;;;;;;4993520;28;20184;-61
2022/01/26 04:14:06;;;;;;;93.47;44.33;;;4.00;99.90;;;;;;4995108;28;20705;-61
2022/01/26 04:16:32;;;;;;;103.45;47.55;;;3.90;99.90;;;;;;4995340;28;20660;-61
2022/01/26 04:18:58;;;;;;;94.00;46.43;;;3.90;99.90;;;;;;4995157;28;20627;-61
2022/01/26 04:24:01;;;;;;;88.53;44.13;;;3.80;99.90;;;;;;4995114;28;20267;-61
2022/01/26 04:26:45;;;;;;;83.77;41.80;;;3.90;99.90;;;;;;4994468;28;20698;-61
2022/01/26 04:29:17;;;;;;;83.90;41.17;;;3.80;99.90;;;;;;4995059;28;20548;-61
2022/01/26 04:31:42;;;;;;;82.30;41.03;;;3.80;99.90;;;;;;4994995;28;20223;-62
2022/01/26 04:34:08;;;;;;;78.63;41.60;;;3.80;99.90;;;;;;4994856;28;20677;-61
2022/01/26 04:36:40;;;;;;;83.53;39.67;;;3.80;99.90;;;;;;4994809;28;20176;-61
2022/01/26 04:39:11;;;;;;;85.43;39.57;;;3.80;99.90;;;;;;4994889;28;20212;-61
2022/01/26 04:41:59;;;;;;;81.80;40.97;;;3.70;99.90;;;;;;4994884;28;20210;-61
2022/01/26 04:44:30;;;;;;;81.03;39.43;;;3.80;99.90;;;;;;4994471;28;20192;-61
2022/01/26 04:46:56;;;;;;;89.17;42.50;;;3.80;99.90;;;;;;4994556;28;20626;-63
2022/01/26 04:49:21;;;;;;;83.00;41.67;;;3.70;99.90;;;;;;4994437;28;20188;-61
2022/01/26 04:51:47;;;;;;;79.28;40.88;;;3.80;99.90;;;;;;4994417;28;20188;-61
2022/01/26 04:54:13;;;;;;;92.90;42.50;;;3.90;99.90;;;;;;4994578;28;20177;-61
2022/01/26 04:56:39;;;;;;;82.53;40.70;;;3.80;99.90;;;;;;4994529;28;20243;-61
2022/01/26 04:59:05;;;;;;;83.80;40.53;;;3.80;99.90;;;;;;4994361;28;20669;-61
2022/01/26 05:01:31;;;;;;;87.90;41.97;;;3.80;99.90;;;;;;4993553;28;20537;-61
2022/01/26 05:03:56;;;;;;;86.85;40.13;;;3.70;99.90;;;;;;4992947;28;20199;-61
2022/01/26 05:06:23;;;;;;;80.70;41.50;;;3.70;99.90;;;;;;4994423;28;20185;-61
2022/01/26 05:08:49;;;;;;;77.60;39.07;;;3.60;99.90;;;;;;4994344;28;20558;-60
2022/01/26 05:11:21;;;;;;;86.73;41.13;;;3.60;99.90;;;;;;4994349;28;20180;-60
2022/01/26 05:13:47;;;;;;;79.00;39.92;;;3.80;99.90;;;;;;4994194;28;20192;-61
2022/01/26 05:16:12;;;;;;;81.63;40.20;;;3.70;99.90;;;;;;4994049;28;20188;-61
2022/01/26 05:18:38;;;;;;;88.63;42.80;;;3.60;99.90;;;;;;4994243;28;20577;-61
2022/01/26 05:21:04;;;;;;;83.30;40.53;;;3.70;99.90;;;;;;4993857;28;20224;-61
2022/01/26 05:23:29;;;;;;;89.78;42.45;;;3.80;99.90;;;;;;4994111;28;20185;-61
2022/01/26 05:25:55;;;;;;;85.70;41.25;;;3.80;99.90;;;;;;4994208;28;20184;-61
2022/01/26 05:28:21;;;;;;;84.43;41.80;;;3.80;99.90;;;;;;4994304;28;20244;-60
2022/01/26 05:30:46;;;;;;;88.57;43.03;;;3.90;99.90;;;;;;4993969;28;20638;-61
2022/01/26 05:33:12;;;;;;;81.60;41.92;;;3.90;99.90;;;;;;4993856;28;20176;-61
2022/01/26 05:35:38;;;;;;;79.83;41.47;;;3.90;99.90;;;;;;4993982;28;20200;-60
2022/01/26 05:38:03;;;;;;;80.65;42.22;;;3.80;99.90;;;;;;4993688;28;20623;-60
2022/01/26 05:40:29;;;;;;;81.23;39.50;;;3.80;99.90;;;;;;4993801;28;20220;-60
2022/01/26 05:42:55;;;;;;;84.80;41.00;;;3.80;99.90;;;;;;4993810;28;20274;-61
2022/01/26 05:45:43;;;;;;;76.10;39.30;;;3.80;99.90;;;;;;4993703;28;20635;-60
2022/01/26 05:48:11;;;;;;;77.70;40.83;;;3.90;99.90;;;;;;4993484;28;20275;-61
2022/01/26 05:50:38;;;;;;;79.15;39.08;;;4.00;99.90;;;;;;4993759;28;20204;-60
2022/01/26 05:53:04;;;;;;;75.43;38.17;;;3.90;99.90;;;;;;4993690;28;20196;-60
2022/01/26 05:55:29;;;;;;;79.30;41.07;;;3.80;99.90;;;;;;4993773;28;20728;-60
2022/01/26 05:57:55;;;;;;;78.23;40.23;;;3.90;99.90;;;;;;4993638;28;20184;-61
2022/01/26 06:00:21;;;;;;;73.77;40.20;;;3.80;99.90;;;;;;4993491;28;20569;-60
2022/01/26 06:02:47;;;;;;;82.87;41.93;;;3.90;99.90;;;;;;5008894;28;20180;-59
2022/01/26 06:05:13;;;;;;;76.57;38.90;;;3.90;99.90;;;;;;4993619;28;20212;-60
2022/01/26 06:07:39;;;;;;;81.60;41.13;;;3.80;99.90;;;;;;4993101;28;20274;-60
2022/01/26 06:10:05;;;;;;;74.60;38.40;;;3.60;99.90;;;;;;4992240;28;20189;-60
2022/01/26 06:12:33;;;;;;;78.60;39.30;;;3.80;99.90;;;;;;4993176;28;20188;-60
2022/01/26 06:15:01;;;;;;;74.50;39.15;;;3.70;99.90;;;;;;4997575;28;20192;-60
2022/01/26 06:17:27;;;;;;;71.23;38.80;;;3.70;99.90;;;;;;5012609;28;20215;-60
2022/01/26 06:19:53;;;;;;;81.93;40.53;;;3.70;99.90;;;;;;4997384;28;20204;-60
2022/01/26 06:22:18;;;;;;;80.63;40.53;;;3.80;99.90;;;;;;4997134;28;20192;-60
2022/01/26 06:24:44;;;;;;;76.15;40.42;;;3.70;99.90;;;;;;4997260;28;20366;-60
2022/01/26 06:27:09;;;;;;;77.88;39.53;;;3.80;99.90;;;;;;4997098;28;20176;-60
2022/01/26 06:29:35;;;;;;;74.05;38.90;;;3.80;99.90;;;;;;4997353;28;20188;-60
2022/01/26 06:32:01;;;;;;;76.27;40.57;;;3.90;99.90;;;;;;4997098;28;20180;-60
2022/01/26 06:34:26;;;;;;;74.00;39.33;;;3.90;99.90;;;;;;4997188;28;20180;-60
2022/01/26 06:36:52;;;;;;;80.37;39.77;;;3.80;99.90;;;;;;4997093;28;20180;-60
2022/01/26 06:39:19;;;;;;;72.87;39.77;;;3.80;99.90;;;;;;4996790;28;20677;-60
2022/01/26 06:41:51;;;;;;;75.15;39.55;;;3.90;99.90;;;;;;4996849;28;20223;-59
2022/01/26 06:44:34;;;;;;;73.95;39.70;;;3.80;99.90;;;;;;4996817;28;20192;-60
2022/01/26 06:49:49;;;;;;;76.00;39.47;;;3.70;99.90;;;;;;4985684;28;20208;-60
2022/01/26 06:52:14;;;;;;;73.18;39.28;;;3.80;99.90;;;;;;4996420;28;20554;-60
2022/01/26 06:54:40;;;;;;;74.15;39.20;;;3.80;99.90;;;;;;4996725;28;20216;-63
2022/01/26 06:57:06;;;;;;;71.38;38.38;;;3.80;99.90;;;;;;4996621;28;20599;-60
2022/01/26 06:59:31;;;;;;;68.80;37.17;;;3.70;99.90;;;;;;4996535;28;20204;-60
2022/01/26 07:01:57;;;;;;;69.10;38.50;;;3.60;99.90;;;;;;4996642;28;20539;-60
2022/01/26 07:04:23;;;;;;;71.43;39.10;;;3.60;99.90;;;;;;4996823;28;20173;-60
2022/01/26 07:06:48;;;;;;;72.15;39.53;;;3.70;99.90;;;;;;4996411;28;20188;-62
2022/01/26 07:09:16;;;;;;;70.25;41.92;;;3.70;99.90;;;;;;4996673;28;20181;-60
2022/01/26 07:11:42;;;;;;;69.00;39.08;;;3.60;99.90;;;;;;4996559;28;20188;-62
2022/01/26 07:14:10;;;;;;;70.20;39.13;;;3.60;99.90;;;;;;4996453;28;20231;-60
2022/01/26 07:19:50;;;;;;;69.53;41.13;;;3.60;99.90;;;;;;4996410;28;20223;-60
2022/01/26 07:22:12;;;;;;;70.40;40.90;;;3.80;99.90;;;;;;4996172;28;20599;-60
2022/01/26 07:24:38;;;;;;;71.30;39.97;;;3.80;99.90;;;;;;4995879;28;20184;-62
2022/01/26 07:27:04;;;;;;;76.05;40.75;;;3.80;99.90;;;;;;4996121;28;20185;-60
2022/01/26 07:29:31;;;;;;;73.07;40.15;;;3.90;99.90;;;;;;4996010;28;20187;-60
2022/01/26 07:31:58;;;;;;;70.90;39.67;;;3.70;99.90;;;;;;4995920;28;20184;-60
2022/01/26 07:34:24;;;;;;;70.23;39.93;;;3.70;99.90;;;;;;4996331;28;20200;-60
2022/01/26 07:36:53;;;;;;;72.20;38.53;;;3.80;99.90;;;;;;5011173;28;20320;-60
2022/01/26 07:39:29;;;;;;;71.10;40.97;;;3.80;99.90;;;;;;4995770;28;20290;-60
2022/01/26 07:41:56;;;;;;;69.35;39.92;;;3.80;99.90;;;;;;5009554;28;20191;-60
2022/01/26 07:44:21;;;;;;;74.72;40.67;;;3.80;99.90;;;;;;4995675;28;20184;-59
2022/01/26 07:46:47;;;;;;;73.15;40.80;;;3.80;99.90;;;;;;4994485;28;20196;-60
2022/01/26 07:49:13;;;;;;;72.10;39.47;;;3.90;99.90;;;;;;4995807;28;20184;-62
2022/01/26 07:51:38;;;;;;;70.37;39.40;;;3.70;99.90;;;;;;4995973;28;20199;-60
2022/01/26 07:54:04;;;;;;;70.47;40.43;;;3.70;99.90;;;;;;4995769;28;20638;-60
2022/01/26 07:56:30;;;;;;;73.97;39.77;;;3.80;99.90;;;;;;4995521;28;20180;-60
2022/01/26 07:58:57;;;;;;;72.40;39.53;;;3.90;99.90;;;;;;4995385;28;20623;-60
2022/01/26 08:01:23;;;;;;;75.45;39.53;;;3.90;99.90;;;;;;4995476;28;20200;-60
2022/01/26 08:03:49;;;;;;;74.00;40.67;;;4.00;99.90;;;;;;4995419;28;20188;-60
2022/01/26 08:06:17;;;;;;;76.60;42.77;;;4.00;99.90;;;;;;4995471;28;20185;-60
2022/01/26 08:08:43;;;;;;;74.73;42.10;;;4.10;99.90;;;;;;4995216;28;20243;-60
2022/01/26 08:11:09;;;;;;;73.85;41.72;;;4.00;99.90;;;;;;4995287;28;20185;-60
2022/01/26 08:13:36;;;;;;;71.97;40.00;;;3.90;99.90;;;;;;4995115;28;20633;-60
2022/01/26 08:16:02;;;;;;;71.93;40.08;;;3.80;99.90;;;;;;4995374;28;20176;-60
2022/01/26 08:18:27;;;;;;;73.30;41.67;;;3.80;99.90;;;;;;4994036;28;20239;-61
2022/01/26 08:20:53;;;;;;;75.80;42.43;;;3.90;99.90;;;;;;4993635;28;20295;-60
2022/01/26 08:23:21;;;;;;;70.90;38.25;;;4.00;99.90;;;;;;4995058;28;20225;-60
2022/01/26 08:25:50;;;;;;;71.33;39.20;;;4.00;99.90;;;;;;4994987;28;20165;-60
2022/01/26 08:28:25;;;;;;;73.70;39.88;;;4.10;99.90;;;;;;4993660;28;20177;-61
2022/01/26 08:30:51;;;;;;;74.30;40.00;;;4.00;99.90;;;;;;4995034;28;20185;-60
2022/01/26 08:33:17;;;;;;;71.22;40.42;;;4.00;99.90;;;;;;4994941;28;20180;-60
2022/01/26 08:35:43;;;;;;;68.72;41.05;;;4.00;99.90;;;;;;4994764;28;20630;-60
2022/01/26 08:38:08;;;;;;;73.07;43.70;;;4.10;99.90;;;;;;4994740;28;20203;-59
2022/01/26 08:40:34;;;;;;;63.95;40.92;;;4.10;99.90;;;;;;4994608;28;20288;-60
2022/01/26 08:43:01;;;;;;;66.05;39.83;;;4.30;99.90;;;;;;4994894;28;20188;-60
2022/01/26 08:45:26;;;;;;;68.68;39.85;;;4.20;99.90;;;;;;4994720;28;20582;-62
2022/01/26 08:47:52;;;;;;;67.28;40.28;;;4.20;99.90;;;;;;5009818;28;20236;-60
2022/01/26 08:50:18;;;;;;;70.22;40.78;;;4.20;99.90;;;;;;4994534;28;20235;-62
2022/01/26 08:52:44;;;;;;;63.28;37.95;;;4.20;99.90;;;;;;4994709;28;20610;-62
2022/01/26 08:55:10;;;;;;;66.32;39.72;;;4.30;99.90;;;;;;4994345;28;20212;-62
2022/01/26 08:57:37;;;;;;;61.38;39.40;;;4.30;99.90;;;;;;4994573;28;20577;-62
2022/01/26 09:00:07;;;;;;;65.03;38.22;;;4.10;99.90;;;;;;4994701;28;20236;-60
2022/01/26 09:02:33;;;;;;;65.80;38.67;;;4.20;99.90;;;;;;4994600;28;20183;-59
2022/01/26 09:04:59;;;;;;;63.78;39.55;;;4.30;99.90;;;;;;4994330;28;20664;-60
2022/01/26 09:07:25;;;;;;;64.30;39.22;;;4.30;99.90;;;;;;4994285;28;20210;-63
2022/01/26 09:09:50;;;;;;;62.30;37.78;;;4.40;99.90;;;;;;4994208;28;20215;-62
2022/01/26 09:12:19;;;;;;;62.10;38.22;;;4.40;99.90;;;;;;4994336;28;20328;-60
2022/01/26 09:14:46;;;;;;;61.10;36.85;;;4.50;99.90;;;;;;4994332;28;20179;-60
2022/01/26 09:17:12;;;;;;;56.55;36.47;;;4.50;99.90;;;;;;4994154;28;20238;-62
2022/01/26 09:19:41;;;;;;;59.87;37.23;;;4.40;99.90;;;;;;4994072;28;20211;-62
2022/01/26 09:22:13;;;;;;;52.33;34.63;;;4.40;99.90;;;;;;4994252;28;20196;-62
2022/01/26 09:24:40;;;;;;;57.17;36.17;;;4.40;99.90;;;;;;4994288;28;20180;-62
2022/01/26 09:27:07;;;;;;;56.07;34.30;;;4.50;99.90;;;;;;4994189;28;20585;-60
2022/01/26 09:29:34;;;;;;;52.85;33.58;;;4.40;99.90;;;;;;4994028;28;20304;-62
2022/01/26 09:32:00;;;;;;;50.20;33.03;;;4.50;99.90;;;;;;4994035;28;20660;-62
2022/01/26 09:34:29;;;;;;;53.33;32.90;;;4.40;99.90;;;;;;4993899;28;20211;-62
2022/01/26 09:36:55;;;;;;;52.00;32.22;;;4.30;99.90;;;;;;4993780;28;20181;-62
2022/01/26 09:39:22;;;;;;;47.65;31.95;;;4.30;99.90;;;;;;4994005;28;20212;-61
2022/01/26 09:41:50;;;;;;;52.93;32.67;;;4.40;99.90;;;;;;4993792;28;20211;-62
2022/01/26 09:44:17;;;;;;;48.50;32.55;;;4.50;99.90;;;;;;4993927;28;20185;-62
2022/01/26 09:46:45;;;;;;;50.78;31.83;;;4.50;99.90;;;;;;4993780;28;20708;-62
2022/01/26 09:49:12;;;;;;;50.28;31.05;;;4.50;99.90;;;;;;4999194;28;20533;-61
2022/01/26 09:51:41;;;;;;;49.70;32.33;;;4.60;99.90;;;;;;5000376;28;20176;-62
2022/01/26 09:54:15;;;;;;;47.70;32.92;;;4.60;99.90;;;;;;5000390;28;20184;-62
2022/01/26 09:56:42;;;;;;;46.90;30.60;;;4.60;99.90;;;;;;5000338;28;20176;-61
2022/01/26 09:59:08;;;;;;;54.67;32.88;;;4.60;99.90;;;;;;5000147;28;20545;-61
2022/01/26 10:01:40;;;;;;;49.28;32.85;;;4.60;99.90;;;;;;5000143;28;20188;-61
2022/01/26 10:04:06;;;;;;;50.42;32.67;;;4.60;99.90;;;;;;5000074;28;20188;-62
2022/01/26 10:06:33;;;;;;;50.42;31.45;;;4.80;99.90;;;;;;5000255;28;20176;-61
2022/01/26 10:09:38;;;;;;;50.05;32.20;;;4.60;99.90;;;;;;5000231;28;20605;-61
2022/01/26 10:17:43;;;;;;;48.78;29.88;;;4.70;99.90;;;;;;5000343;28;20250;-61
2022/01/26 10:20:14;;;;;;;50.03;31.92;;;4.70;99.90;;;;;;4999873;28;20216;-61
2022/01/26 10:22:40;;;;;;;54.45;33.05;;;4.70;99.90;;;;;;5000336;28;20279;-62
2022/01/26 10:25:11;;;;;;;48.42;31.60;;;4.60;99.90;;;;;;5000260;28;20208;-62
2022/01/26 10:27:49;;;;;;;49.08;31.73;;;4.70;99.90;;;;;;5000418;28;20708;-61
2022/01/26 10:30:20;;;;;;;48.13;31.75;;;4.70;99.90;;;;;;5000240;28;20185;-61
2022/01/26 10:32:47;;;;;;;46.58;30.58;;;4.70;99.90;;;;;;5000035;28;20180;-61
2022/01/26 10:35:15;;;;;;;49.78;31.40;;;4.80;99.90;;;;;;4999805;28;20262;-61
2022/01/26 10:37:50;;;;;;;51.47;31.92;;;4.80;99.90;;;;;;4998746;28;20180;-61
2022/01/26 10:40:20;;;;;;;50.17;32.13;;;4.80;99.90;;;;;;4999925;28;20215;-61
2022/01/26 10:43:10;;;;;;;49.80;32.00;;;4.80;99.90;;;;;;4999783;28;20189;-61
2022/01/26 10:45:52;;;;;;;52.60;33.25;;;4.80;99.90;;;;;;4999769;28;20180;-61
2022/01/26 10:48:31;;;;;;;48.50;31.58;;;5.00;99.90;;;;;;4999894;28;20211;-62
2022/01/26 10:51:32;;;;;;;50.85;31.52;;;4.90;99.90;;;;;;4999855;28;20227;-61
2022/01/26 10:53:57;;;;;;;49.28;32.85;;;4.80;99.90;;;;;;4999420;28;20601;-62
2022/01/26 10:56:23;;;;;;;54.20;34.35;;;4.70;99.90;;;;;;4999875;28;20212;-61
2022/01/26 10:58:49;;;;;;;52.45;33.95;;;4.80;99.90;;;;;;4999414;28;20661;-61
2022/01/26 11:01:14;;;;;;;52.15;34.00;;;4.80;99.90;;;;;;4996633;28;20216;-61
2022/01/26 11:03:40;;;;;;;53.42;35.08;;;4.80;99.90;;;;;;4996642;28;20264;-61
2022/01/26 11:06:08;;;;;;;53.90;33.50;;;4.80;99.90;;;;;;4996531;28;20184;-62
2022/01/26 11:08:40;;;;;;;58.13;36.63;;;4.90;99.90;;;;;;4996378;28;20243;-60
2022/01/26 11:11:06;;;;;;;56.00;36.45;;;4.90;99.90;;;;;;4996618;28;20545;-61
2022/01/26 11:13:39;;;;;;;53.38;35.53;;;5.00;99.90;;;;;;4996537;28;20176;-62
2022/01/26 11:16:16;;;;;;;60.08;36.13;;;5.00;99.90;;;;;;4995166;28;20523;-62
2022/01/26 11:18:50;;;;;;;57.75;37.08;;;5.00;99.90;;;;;;4996303;28;20170;-62
2022/01/26 11:21:30;;;;;;;55.25;37.45;;;5.10;99.90;;;;;;4996353;28;20283;-63
2022/01/26 11:24:21;;;;;;;57.63;36.13;;;4.90;99.90;;;;;;4996458;28;20221;-62
2022/01/26 11:27:04;;;;;;;55.85;36.80;;;4.90;99.90;;;;;;4996179;28;20199;-62
2022/01/26 11:29:34;;;;;;;54.00;35.30;;;4.80;99.90;;;;;;4995128;28;20185;-62
2022/01/26 11:32:06;;;;;;;52.42;35.83;;;4.90;99.90;;;;;;4996433;28;20181;-60
2022/01/26 11:34:34;;;;;;;54.67;37.90;;;5.00;99.90;;;;;;4996189;28;20176;-63
2022/01/26 11:37:00;;;;;;;55.70;36.47;;;5.00;99.90;;;;;;4996135;28;20213;-61
2022/01/26 11:42:33;;;;;;;55.90;37.13;;;5.00;99.90;;;;;;4995909;28;20199;-61
2022/01/26 11:45:12;;;;;;;54.47;35.67;;;5.10;99.90;;;;;;4995972;28;20176;-61
2022/01/26 11:47:41;;;;;;;53.53;35.63;;;4.80;99.90;;;;;;4995968;28;20223;-63
2022/01/26 11:50:21;;;;;;;54.70;34.85;;;4.90;99.90;;;;;;4995633;28;20183;-60
2022/01/26 11:53:08;;;;;;;56.22;35.72;;;5.00;99.90;;;;;;4995722;28;20192;-60
2022/01/26 11:55:37;;;;;;;52.30;34.90;;;5.10;99.90;;;;;;4995724;28;20192;-62
2022/01/26 11:58:07;;;;;;;49.72;34.05;;;5.00;99.90;;;;;;4995660;28;20503;-61
2022/01/26 12:00:54;;;;;;;53.63;36.28;;;5.00;99.90;;;;;;4995315;28;20209;-60
2022/01/26 12:03:22;;;;;;;55.20;35.85;;;5.00;99.90;;;;;;4995628;28;20326;-60
2022/01/26 12:05:49;;;;;;;55.20;35.15;;;5.10;99.90;;;;;;4995557;28;20178;-60
2022/01/26 12:08:27;;;;;;;53.25;35.13;;;5.20;99.90;;;;;;4995423;28;20272;-61
2022/01/26 12:10:53;;;;;;;55.53;35.63;;;5.20;99.90;;;;;;4994745;28;20180;-61
2022/01/26 12:13:23;;;;;;;54.40;35.55;;;5.20;99.90;;;;;;4995514;28;20272;-61
2022/01/26 12:15:58;;;;;;;54.75;35.72;;;5.20;99.90;;;;;;4995446;28;20247;-61
2022/01/26 12:18:35;;;;;;;57.47;34.63;;;5.10;99.90;;;;;;4995283;28;20184;-61
2022/01/26 12:35:15;;;;;;;58.25;35.92;;;4.90;99.90;;;;;;4994982;28;20708;-61
2022/01/26 12:37:56;;;;;;;53.78;35.22;;;4.90;99.90;;;;;;4994829;28;20183;-61
2022/01/26 12:43:44;;;;;;;51.70;33.70;;;5.00;99.90;;;;;;4995116;28;20712;-60
2022/01/26 12:46:13;;;;;;;54.25;34.78;;;5.10;99.90;;;;;;4994727;28;20196;-62
2022/01/26 12:48:42;;;;;;;51.85;35.25;;;5.20;99.90;;;;;;4994559;28;20634;-60
2022/01/26 12:51:09;;;;;;;54.47;34.55;;;5.30;99.90;;;;;;4994575;28;20207;-62
2022/01/26 12:53:37;;;;;;;53.90;34.65;;;5.20;99.90;;;;;;4994570;28;20724;-61
2022/01/26 12:56:05;;;;;;;56.13;33.00;;;5.20;99.90;;;;;;4994480;28;20181;-60
2022/01/26 12:58:34;;;;;;;55.90;34.80;;;5.30;99.90;;;;;;4994474;28;20262;-61
2022/01/26 13:01:08;;;;;;;54.50;34.30;;;5.30;99.90;;;;;;4994245;28;20205;-60
2022/01/26 13:03:37;;;;;;;52.20;34.80;;;5.20;99.90;;;;;;4994289;28;20183;-60
2022/01/26 13:06:12;;;;;;;54.38;36.47;;;5.30;99.90;;;;;;4994574;28;20183;-60
2022/01/26 13:09:15;;;;;;;54.03;34.92;;;5.20;99.90;;;;;;4994321;28;20186;-62
2022/01/26 13:11:44;;;;;;;54.85;35.17;;;5.30;99.90;;;;;;4993344;28;20198;-60
2022/01/26 13:14:19;;;;;;;57.28;37.50;;;5.40;99.90;;;;;;4994323;28;20630;-60
2022/01/26 13:17:12;;;;;;;58.95;35.35;;;5.40;99.90;;;;;;4994304;28;20176;-60
2022/01/26 13:20:40;;;;;;;54.15;35.83;;;5.40;99.90;;;;;;4994063;28;20196;-60
2022/01/26 13:36:53;;;;;;;59.78;37.13;;;5.30;99.90;;;;;;4993897;28;20188;-60
2022/01/26 13:52:28;;;;;;;57.70;35.28;;;5.10;99.90;;;;;;4993599;28;20258;-60
2022/01/26 14:00:16;;;;;;;59.28;35.35;;;5.20;99.90;;;;;;4993789;28;20242;-60
2022/01/26 14:02:42;;;;;;;64.80;39.80;;;5.30;99.90;;;;;;4993750;28;20180;-60
2022/01/26 14:05:12;;;;;;;62.05;40.05;;;5.30;99.90;;;;;;4993662;28;20188;-60
2022/01/26 14:07:38;;;;;;;59.42;35.40;;;5.30;99.90;;;;;;4993632;28;20585;-60
2022/01/26 14:10:04;;;;;;;56.45;35.75;;;5.30;99.90;;;;;;4993932;28;20184;-60
2022/01/26 14:12:35;;;;;;;57.72;37.13;;;5.30;99.90;;;;;;4993787;28;20240;-60
2022/01/26 14:15:06;;;;;;;61.10;36.80;;;5.30;99.90;;;;;;4993695;28;20182;-60
2022/01/26 14:17:42;;;;;;;58.72;35.72;;;5.40;99.90;;;;;;4993566;28;20657;-62
2022/01/26 14:25:27;;;;;;;57.25;36.22;;;5.30;99.90;;;;;;4993613;28;20190;-60
2022/01/26 14:27:57;;;;;;;62.25;35.83;;;5.30;99.90;;;;;;4993478;28;20594;-61
2022/01/26 14:52:46;;;;;;;60.40;36.58;;;5.30;99.90;;;;;;4997087;28;20653;-59
2022/01/26 14:54:31;;;;;;;60.92;35.95;;;5.30;99.90;;;;;;4991159;28;20193;-60
2022/01/26 15:00:10;;;;;;;60.65;36.80;;;5.20;99.90;;;;;;4996851;28;20660;-60
2022/01/26 15:35:27;;;;;;;49.97;31.88;;;4.90;99.90;;;;;;4989417;28;20284;-60
2022/01/26 15:50:56;;;;;;;68.57;40.92;;;4.90;99.90;;;;;;4996031;28;20247;-60
2022/01/26 16:18:32;;;;;;;46.65;31.05;;;4.90;99.90;;;;;;4995723;28;20621;-60
2022/01/26 16:20:41;;;;;;;47.47;30.75;;;4.80;99.90;;;;;;4994899;28;20661;-60
2022/01/26 16:35:10;;;;;;;49.38;31.20;;;4.70;99.90;;;;;;4994980;28;20233;-60
2022/01/26 17:37:47;;;;;;;52.05;33.78;;;4.80;99.90;;;;;;4994293;28;20272;-60
2022/01/26 18:49:19;;;;;;;46.47;30.88;;;4.90;99.90;;;;;;4996923;28;20188;-61
2022/01/26 18:51:59;;;;;;;44.60;30.23;;;4.90;99.90;;;;;;4996847;28;20199;-61
2022/01/26 18:54:27;;;;;;;44.78;30.90;;;4.80;99.90;;;;;;4996855;28;20184;-62
2022/01/26 18:56:55;;;;;;;52.78;31.15;;;4.90;99.90;;;;;;4997002;28;20526;-61
2022/01/26 18:59:22;;;;;;;43.00;28.63;;;4.80;99.90;;;;;;4996399;28;20637;-61
2022/01/26 19:01:49;;;;;;;43.22;30.05;;;4.90;99.90;;;;;;4996753;28;20191;-61
2022/01/26 19:04:17;;;;;;;48.58;30.83;;;4.90;99.90;;;;;;4996648;28;20180;-62
2022/01/26 19:06:49;;;;;;;45.15;28.98;;;4.90;99.90;;;;;;4996639;28;20177;-62
2022/01/26 19:09:19;;;;;;;45.00;29.27;;;5.00;99.90;;;;;;5010950;28;20185;-62
2022/01/26 19:11:44;;;;;;;42.85;29.30;;;5.10;99.90;;;;;;4996361;28;20215;-61
2022/01/26 19:14:10;;;;;;;39.72;28.23;;;5.10;99.90;;;;;;4996627;28;20677;-61